createdAt,value
2017-09-23T00:00:34.292Z,10.60
2017-09-23T00:03:00.596Z,10.60
2017-09-23T00:05:26.889Z,10.60
2017-09-23T00:07:53.299Z,10.50
2017-09-23T00:10:19.629Z,10.40
2017-09-23T00:12:45.978Z,10.40
2017-09-23T00:15:12.324Z,10.40
2017-09-23T00:17:38.624Z,10.40
2017-09-23T00:20:04.915Z,10.40
2017-09-23T00:22:31.207Z,10.30
2017-09-23T00:24:57.521Z,10.30
2017-09-23T00:27:23.816Z,10.30
2017-09-23T00:29:50.839Z,10.40
2017-09-23T00:32:17.148Z,10.40
2017-09-23T00:34:43.458Z,10.40
2017-09-23T00:37:09.799Z,10.50
2017-09-23T00:39:36.179Z,10.40
2017-09-23T00:42:03.377Z,10.50
2017-09-23T00:44:29.702Z,10.50
2017-09-23T00:46:56.028Z,10.60
2017-09-23T00:49:22.907Z,10.70
2017-09-23T00:51:49.223Z,10.60
2017-09-23T00:54:15.582Z,10.60
2017-09-23T00:56:41.905Z,10.50
2017-09-23T00:59:08.254Z,10.50
2017-09-23T01:01:35.315Z,10.50
2017-09-23T01:04:02.408Z,10.50
2017-09-23T01:06:28.809Z,10.50
2017-09-23T01:08:55.121Z,10.60
2017-09-23T01:11:22.188Z,10.90
2017-09-23T01:13:48.493Z,10.90
2017-09-23T01:16:15.564Z,11.00
2017-09-23T01:18:41.852Z,11.00
2017-09-23T01:21:09.740Z,11.20
2017-09-23T01:23:36.872Z,11.30
2017-09-23T01:26:03.323Z,11.20
2017-09-23T01:28:30.518Z,11.30
2017-09-23T01:30:56.805Z,11.30
2017-09-23T01:33:23.835Z,11.40
2017-09-23T01:35:50.104Z,11.30
2017-09-23T01:38:16.399Z,11.40
2017-09-23T01:40:43.435Z,11.50
2017-09-23T01:43:09.773Z,11.40
2017-09-23T01:45:36.856Z,11.50
2017-09-23T01:48:03.156Z,11.50
2017-09-23T01:50:30.200Z,11.50
2017-09-23T01:52:56.796Z,11.50
2017-09-23T01:55:23.095Z,11.50
2017-09-23T01:57:49.452Z,11.50
2017-09-23T02:00:15.761Z,11.50
2017-09-23T02:02:42.069Z,11.50
2017-09-23T02:05:09.124Z,11.50
2017-09-23T02:07:35.429Z,11.50
2017-09-23T02:10:01.714Z,11.50
2017-09-23T02:12:28.008Z,11.40
2017-09-23T02:14:55.208Z,11.30
2017-09-23T02:17:21.528Z,11.20
2017-09-23T02:19:47.850Z,11.20
2017-09-23T02:22:14.176Z,11.20
2017-09-23T02:24:40.488Z,11.20
2017-09-23T02:27:06.800Z,11.20
2017-09-23T02:29:33.892Z,11.20
2017-09-23T02:32:00.186Z,11.20
2017-09-23T02:34:26.509Z,11.20
2017-09-23T02:36:53.642Z,11.20
2017-09-23T02:39:19.972Z,11.20
2017-09-23T02:41:46.279Z,11.20
2017-09-23T02:44:12.543Z,11.20
2017-09-23T02:46:39.597Z,11.20
2017-09-23T02:49:06.768Z,11.20
2017-09-23T02:51:33.120Z,11.20
2017-09-23T02:53:59.409Z,11.20
2017-09-23T02:56:26.614Z,11.10
2017-09-23T02:58:52.954Z,11.10
2017-09-23T03:01:19.280Z,11.10
2017-09-23T03:03:45.564Z,11.00
2017-09-23T03:06:11.874Z,11.00
2017-09-23T03:08:38.876Z,10.80
2017-09-23T03:11:05.330Z,10.80
2017-09-23T03:13:31.816Z,10.70
2017-09-23T03:15:58.106Z,10.60
2017-09-23T03:18:25.220Z,10.50
2017-09-23T03:20:51.520Z,10.50
2017-09-23T03:23:18.160Z,10.60
2017-09-23T03:25:44.472Z,10.60
2017-09-23T03:28:11.644Z,10.70
2017-09-23T03:30:37.965Z,10.70
2017-09-23T03:33:04.281Z,10.70
2017-09-23T03:35:31.331Z,10.70
2017-09-23T03:37:58.364Z,10.70
2017-09-23T03:40:25.427Z,10.70
2017-09-23T03:42:52.495Z,10.80
2017-09-23T03:45:18.815Z,10.80
2017-09-23T03:47:45.111Z,10.80
2017-09-23T03:50:11.396Z,10.80
2017-09-23T03:52:37.716Z,10.90
2017-09-23T03:55:04.028Z,10.90
2017-09-23T03:57:30.449Z,10.90
2017-09-23T03:59:57.545Z,10.90
2017-09-23T04:02:23.852Z,10.90
2017-09-23T04:04:50.127Z,10.90
2017-09-23T04:07:16.484Z,10.90
2017-09-23T04:09:43.522Z,10.90
2017-09-23T04:12:09.831Z,10.90
2017-09-23T04:14:36.175Z,10.90
2017-09-23T04:17:02.448Z,10.90
2017-09-23T04:19:28.781Z,10.90
2017-09-23T04:21:55.109Z,10.90
2017-09-23T04:24:21.560Z,10.90
2017-09-23T04:26:47.856Z,11.00
2017-09-23T04:29:14.948Z,11.00
2017-09-23T04:31:41.342Z,11.00
2017-09-23T04:34:07.609Z,11.10
2017-09-23T04:36:33.947Z,11.10
2017-09-23T04:39:00.239Z,11.10
2017-09-23T04:41:26.538Z,11.10
2017-09-23T04:43:53.557Z,11.20
2017-09-23T04:46:19.874Z,11.10
2017-09-23T04:48:46.160Z,11.10
2017-09-23T04:51:13.464Z,11.10
2017-09-23T04:53:39.753Z,11.10
2017-09-23T04:56:06.060Z,11.10
2017-09-23T04:58:33.172Z,11.10
2017-09-23T05:00:59.539Z,11.00
2017-09-23T05:03:26.615Z,11.00
2017-09-23T05:05:52.900Z,11.00
2017-09-23T05:08:19.219Z,11.00
2017-09-23T05:10:45.692Z,11.00
2017-09-23T05:13:12.016Z,11.00
2017-09-23T05:15:39.136Z,10.90
2017-09-23T05:18:05.510Z,10.90
2017-09-23T05:20:31.815Z,10.90
2017-09-23T05:22:58.184Z,10.90
2017-09-23T05:25:24.477Z,10.90
2017-09-23T05:27:51.531Z,10.90
2017-09-23T05:30:18.604Z,10.90
2017-09-23T05:32:44.905Z,10.90
2017-09-23T05:35:11.987Z,11.00
2017-09-23T05:37:38.312Z,11.00
2017-09-23T05:40:04.669Z,11.00
2017-09-23T05:42:31.022Z,11.10
2017-09-23T05:44:57.332Z,11.20
2017-09-23T05:47:23.688Z,11.30
2017-09-23T05:49:49.989Z,11.30
2017-09-23T05:52:16.372Z,11.50
2017-09-23T05:54:42.745Z,11.50
2017-09-23T05:57:09.053Z,11.50
2017-09-23T05:59:35.373Z,11.60
2017-09-23T06:02:02.469Z,11.80
2017-09-23T06:04:28.857Z,11.90
2017-09-23T06:06:55.215Z,12.00
2017-09-23T06:09:21.520Z,12.20
2017-09-23T06:11:47.941Z,12.40
2017-09-23T06:14:14.968Z,13.10
2017-09-23T06:16:41.308Z,13.10
2017-09-23T06:19:08.413Z,13.80
2017-09-23T06:24:04.556Z,14.00
2017-09-23T06:26:30.893Z,14.20
2017-09-23T06:28:57.292Z,14.40
2017-09-23T06:31:23.626Z,14.60
2017-09-23T06:33:49.953Z,14.70
2017-09-23T06:36:16.281Z,14.80
2017-09-23T06:38:42.681Z,15.20
2017-09-23T06:41:09.776Z,15.80
2017-09-23T06:43:36.103Z,15.80
2017-09-23T06:46:03.000Z,15.90
2017-09-23T06:48:30.075Z,15.90
2017-09-23T06:50:56.431Z,15.80
2017-09-23T06:53:22.740Z,15.90
2017-09-23T06:55:49.136Z,16.00
2017-09-23T06:58:15.877Z,16.10
2017-09-23T07:00:42.924Z,16.80
2017-09-23T07:03:09.232Z,16.80
2017-09-23T07:05:35.556Z,17.40
2017-09-23T07:08:01.879Z,18.20
2017-09-23T07:10:28.173Z,19.80
2017-09-23T07:12:54.494Z,22.20
2017-09-23T07:15:21.540Z,26.80
2017-09-23T07:17:48.616Z,28.70
2017-09-23T07:20:14.908Z,28.50
2017-09-23T07:22:41.985Z,31.10
2017-09-23T07:25:08.294Z,31.10
2017-09-23T07:27:35.363Z,32.90
2017-09-23T07:30:01.664Z,32.80
2017-09-23T07:32:28.724Z,34.10
2017-09-23T07:34:55.827Z,33.70
2017-09-23T07:37:22.163Z,33.70
2017-09-23T07:39:48.446Z,32.90
2017-09-23T07:42:14.757Z,32.90
2017-09-23T07:44:41.834Z,33.80
2017-09-23T07:47:08.169Z,33.80
2017-09-23T07:49:34.484Z,34.30
2017-09-23T07:52:00.824Z,34.80
2017-09-23T07:54:27.209Z,35.20
2017-09-23T07:56:54.250Z,36.20
2017-09-23T07:59:20.581Z,36.20
2017-09-23T08:01:46.958Z,36.60
2017-09-23T08:04:13.296Z,37.00
2017-09-23T08:06:39.680Z,37.00
2017-09-23T08:09:06.004Z,36.90
2017-09-23T08:11:32.547Z,37.20
2017-09-23T08:13:59.636Z,37.20
2017-09-23T08:16:25.968Z,37.20
2017-09-23T08:18:52.436Z,37.30
2017-09-23T08:21:18.730Z,37.50
2017-09-23T08:23:45.042Z,37.60
2017-09-23T08:26:12.181Z,37.90
2017-09-23T08:28:38.488Z,37.90
2017-09-23T08:31:05.574Z,38.20
2017-09-23T08:33:31.877Z,38.20
2017-09-23T08:35:58.171Z,38.00
2017-09-23T08:38:24.504Z,38.00
2017-09-23T08:40:50.811Z,38.00
2017-09-23T08:43:17.132Z,38.10
2017-09-23T08:45:43.546Z,38.00
2017-09-23T08:48:10.612Z,38.00
2017-09-23T08:50:36.912Z,38.00
2017-09-23T08:53:03.980Z,37.70
2017-09-23T08:55:30.308Z,37.70
2017-09-23T08:57:56.600Z,37.70
2017-09-23T09:00:22.930Z,37.40
2017-09-23T09:02:49.252Z,37.40
2017-09-23T09:05:15.574Z,37.50
2017-09-23T09:07:41.936Z,37.60
2017-09-23T09:10:08.209Z,37.60
2017-09-23T09:12:34.531Z,37.20
2017-09-23T09:15:00.818Z,36.80
2017-09-23T09:17:27.892Z,35.00
2017-09-23T09:19:55.060Z,34.70
2017-09-23T09:22:21.652Z,34.70
2017-09-23T09:24:47.988Z,34.10
2017-09-23T09:27:15.085Z,32.00
2017-09-23T09:29:41.402Z,31.90
2017-09-23T09:32:07.816Z,30.80
2017-09-23T09:34:34.948Z,28.30
2017-09-23T09:37:01.972Z,27.00
2017-09-23T09:39:28.307Z,26.90
2017-09-23T09:41:54.627Z,26.20
2017-09-23T09:44:20.943Z,25.40
2017-09-23T09:46:47.227Z,24.90
2017-09-23T09:49:14.317Z,23.90
2017-09-23T09:51:40.600Z,23.80
2017-09-23T09:54:07.672Z,23.10
2017-09-23T09:56:34.038Z,23.00
2017-09-23T09:59:00.356Z,22.90
2017-09-23T10:01:26.780Z,22.80
2017-09-23T10:03:53.112Z,22.60
2017-09-23T10:06:19.504Z,22.20
2017-09-23T10:08:46.583Z,21.80
2017-09-23T10:11:12.917Z,21.80
2017-09-23T10:13:39.365Z,21.90
2017-09-23T10:16:05.757Z,22.00
2017-09-23T10:18:32.796Z,21.70
2017-09-23T10:20:59.832Z,21.50
2017-09-23T10:23:26.909Z,21.50
2017-09-23T10:25:53.249Z,21.50
2017-09-23T10:28:19.541Z,21.60
2017-09-23T10:30:45.879Z,21.80
2017-09-23T10:33:12.982Z,22.40
2017-09-23T10:35:39.312Z,22.30
2017-09-23T10:38:05.683Z,22.50
2017-09-23T10:40:32.081Z,22.20
2017-09-23T10:42:58.453Z,21.90
2017-09-23T10:45:25.114Z,21.70
2017-09-23T10:47:51.460Z,21.70
2017-09-23T10:50:17.773Z,21.70
2017-09-23T10:52:44.128Z,21.60
2017-09-23T10:55:10.418Z,21.60
2017-09-23T10:57:37.722Z,21.60
2017-09-23T11:00:04.059Z,21.50
2017-09-23T11:02:30.386Z,21.40
2017-09-23T11:05:03.693Z,21.30
2017-09-23T11:07:29.992Z,21.20
2017-09-23T11:09:56.363Z,21.00
2017-09-23T11:12:22.676Z,21.00
2017-09-23T11:14:49.050Z,20.90
2017-09-23T11:17:16.125Z,20.80
2017-09-23T11:19:44.694Z,20.80
2017-09-23T11:22:11.088Z,20.90
2017-09-23T11:24:37.526Z,21.00
2017-09-23T11:27:03.849Z,21.00
2017-09-23T11:29:30.204Z,21.00
2017-09-23T11:31:57.505Z,21.10
2017-09-23T11:34:23.827Z,21.10
2017-09-23T11:36:50.164Z,21.20
2017-09-23T11:39:16.537Z,21.30
2017-09-23T11:41:43.086Z,21.40
2017-09-23T11:44:10.135Z,21.50
2017-09-23T11:46:37.357Z,21.70
2017-09-23T11:49:03.920Z,21.60
2017-09-23T11:51:31.097Z,21.90
2017-09-23T11:53:57.426Z,22.10
2017-09-23T11:56:23.780Z,22.40
2017-09-23T11:58:50.127Z,22.50
2017-09-23T12:01:17.109Z,22.50
2017-09-23T12:03:43.490Z,22.60
2017-09-23T12:06:09.817Z,22.60
2017-09-23T12:08:36.139Z,22.60
2017-09-23T12:11:02.499Z,22.60
2017-09-23T12:13:28.874Z,22.70
2017-09-23T12:15:55.200Z,22.60
2017-09-23T12:18:22.262Z,22.60
2017-09-23T12:20:48.607Z,22.50
2017-09-23T12:23:14.899Z,22.50
2017-09-23T12:25:41.963Z,22.50
2017-09-23T12:28:08.257Z,22.50
2017-09-23T12:30:34.596Z,22.50
2017-09-23T12:33:00.909Z,22.30
2017-09-23T12:35:27.268Z,22.00
2017-09-23T12:37:53.680Z,21.70
2017-09-23T12:40:19.961Z,21.60
2017-09-23T12:42:46.262Z,21.50
2017-09-23T12:45:13.408Z,21.40
2017-09-23T12:47:40.470Z,21.40
2017-09-23T12:50:07.128Z,21.40
2017-09-23T12:52:33.451Z,21.40
2017-09-23T12:54:59.799Z,21.50
2017-09-23T12:57:26.149Z,21.80
2017-09-23T12:59:52.669Z,22.00
2017-09-23T13:02:19.059Z,22.00
2017-09-23T13:04:46.146Z,21.70
2017-09-23T13:07:12.479Z,21.60
2017-09-23T13:09:39.287Z,21.50
2017-09-23T13:12:05.688Z,21.30
2017-09-23T13:14:31.993Z,21.10
2017-09-23T13:16:58.353Z,20.70
2017-09-23T13:19:24.648Z,20.50
2017-09-23T13:21:51.057Z,20.40
2017-09-23T13:24:17.583Z,20.40
2017-09-23T13:26:43.899Z,20.50
2017-09-23T13:29:11.017Z,20.90
2017-09-23T13:31:37.405Z,20.90
2017-09-23T13:34:03.720Z,21.30
2017-09-23T13:36:32.114Z,21.40
2017-09-23T13:38:58.629Z,21.60
2017-09-23T13:41:24.912Z,21.60
2017-09-23T13:43:51.850Z,21.70
2017-09-23T13:46:18.162Z,21.70
2017-09-23T13:48:44.488Z,21.70
2017-09-23T13:51:10.784Z,21.80
2017-09-23T13:53:37.889Z,21.90
2017-09-23T13:56:04.222Z,21.90
2017-09-23T13:58:30.535Z,22.00
2017-09-23T14:00:56.866Z,22.30
2017-09-23T14:03:23.209Z,22.50
2017-09-23T14:05:49.524Z,22.70
2017-09-23T14:08:15.811Z,22.90
2017-09-23T14:10:42.948Z,23.00
2017-09-23T14:13:09.310Z,23.00
2017-09-23T14:15:35.623Z,23.00
2017-09-23T14:18:02.678Z,23.10
2017-09-23T14:20:29.704Z,23.20
2017-09-23T14:22:56.061Z,23.20
2017-09-23T14:25:22.389Z,23.40
2017-09-23T14:27:48.693Z,23.40
2017-09-23T14:30:15.025Z,23.50
2017-09-23T14:32:41.306Z,23.60
2017-09-23T14:35:07.649Z,23.60
2017-09-23T14:37:33.947Z,23.70
2017-09-23T14:40:00.237Z,23.80
2017-09-23T14:42:26.561Z,23.80
2017-09-23T14:44:53.612Z,23.90
2017-09-23T14:47:19.990Z,23.90
2017-09-23T14:49:46.276Z,23.90
2017-09-23T14:52:12.605Z,23.80
2017-09-23T14:54:38.921Z,23.80
2017-09-23T14:57:05.247Z,23.80
2017-09-23T14:59:31.756Z,23.80
2017-09-23T15:01:59.136Z,23.60
2017-09-23T15:04:25.710Z,23.40
2017-09-23T15:06:54.359Z,23.20
2017-09-23T15:09:21.459Z,22.60
2017-09-23T15:11:47.760Z,22.60
2017-09-23T15:14:14.880Z,22.10
2017-09-23T15:16:41.292Z,22.10
2017-09-23T15:19:07.633Z,21.90
2017-09-23T15:21:33.953Z,21.60
2017-09-23T15:24:00.660Z,21.20
2017-09-23T15:26:27.856Z,20.60
2017-09-23T15:28:55.026Z,20.40
2017-09-23T15:31:21.371Z,20.40
2017-09-23T15:33:48.426Z,20.10
2017-09-23T15:36:15.550Z,19.90
2017-09-23T15:38:42.184Z,19.90
2017-09-23T15:41:08.619Z,19.80
2017-09-23T15:43:35.057Z,19.70
2017-09-23T15:46:02.104Z,19.40
2017-09-23T15:48:29.913Z,19.30
2017-09-23T15:50:56.232Z,19.30
2017-09-23T15:53:23.289Z,19.20
2017-09-23T15:55:49.632Z,19.20
2017-09-23T15:58:16.032Z,19.10
2017-09-23T16:00:43.132Z,19.00
2017-09-23T16:03:09.480Z,19.00
2017-09-23T16:05:35.823Z,19.00
2017-09-23T16:08:02.873Z,19.00
2017-09-23T16:10:29.174Z,18.90
2017-09-23T16:12:55.480Z,18.90
2017-09-23T16:15:21.817Z,18.90
2017-09-23T16:17:53.684Z,18.90
2017-09-23T16:20:20.789Z,18.90
2017-09-23T16:22:47.859Z,18.80
2017-09-23T16:25:14.157Z,18.80
2017-09-23T16:27:40.480Z,18.80
2017-09-23T16:30:06.821Z,18.70
2017-09-23T16:32:33.192Z,18.70
2017-09-23T16:34:59.505Z,18.70
2017-09-23T16:37:25.854Z,18.70
2017-09-23T16:39:52.245Z,18.60
2017-09-23T16:42:19.364Z,18.40
2017-09-23T16:44:48.272Z,18.40
2017-09-23T16:47:14.685Z,18.40
2017-09-23T16:49:41.078Z,18.40
2017-09-23T16:52:07.425Z,18.30
2017-09-23T16:54:33.909Z,18.20
2017-09-23T16:57:01.001Z,18.10
2017-09-23T16:59:28.161Z,18.00
2017-09-23T17:01:56.196Z,17.90
2017-09-23T17:04:23.249Z,17.80
2017-09-23T17:06:50.469Z,17.80
2017-09-23T17:09:17.577Z,17.70
2017-09-23T17:11:43.914Z,17.70
2017-09-23T17:14:10.224Z,17.60
2017-09-23T17:16:36.547Z,17.50
2017-09-23T17:19:02.951Z,17.50
2017-09-23T17:21:30.032Z,17.30
2017-09-23T17:23:56.371Z,17.30
2017-09-23T17:26:22.669Z,17.30
2017-09-23T17:28:49.711Z,17.20
2017-09-23T17:31:16.734Z,17.20
2017-09-23T17:33:43.044Z,17.20
2017-09-23T17:36:09.377Z,17.20
2017-09-23T17:38:35.705Z,17.10
2017-09-23T17:41:02.034Z,17.00
2017-09-23T17:43:28.616Z,16.90
2017-09-23T17:45:55.711Z,16.70
2017-09-23T17:48:22.021Z,16.70
2017-09-23T17:50:48.322Z,16.60
2017-09-23T17:53:15.470Z,16.30
2017-09-23T17:55:42.514Z,16.20
2017-09-23T17:58:15.953Z,16.20
2017-09-23T18:00:42.506Z,16.10
2017-09-23T18:03:08.881Z,16.00
2017-09-23T18:05:35.928Z,15.80
2017-09-23T18:08:02.303Z,15.80
2017-09-23T18:10:29.068Z,15.70
2017-09-23T18:12:56.840Z,15.60
2017-09-23T18:15:23.487Z,15.60
2017-09-23T18:17:49.801Z,15.60
2017-09-23T18:20:16.142Z,15.60
2017-09-23T18:22:48.467Z,15.60
2017-09-23T18:25:14.840Z,15.70
2017-09-23T18:27:41.114Z,15.60
2017-09-23T18:30:07.458Z,15.60
2017-09-23T18:32:33.795Z,15.60
2017-09-23T18:35:00.156Z,15.60
2017-09-23T18:37:26.488Z,15.70
2017-09-23T18:39:52.804Z,15.70
2017-09-23T18:42:19.154Z,15.60
2017-09-23T18:44:52.472Z,15.60
2017-09-23T18:47:19.552Z,15.50
2017-09-23T18:49:45.881Z,15.50
2017-09-23T18:52:12.201Z,15.50
2017-09-23T18:54:38.531Z,15.50
2017-09-23T18:57:04.901Z,15.50
2017-09-23T18:59:31.277Z,15.50
2017-09-23T19:01:58.325Z,15.60
2017-09-23T19:04:25.447Z,15.50
2017-09-23T19:06:51.769Z,15.50
2017-09-23T19:09:18.061Z,15.50
2017-09-23T19:11:44.402Z,15.50
2017-09-23T19:14:10.792Z,15.60
2017-09-23T19:16:38.004Z,15.50
2017-09-23T19:19:04.356Z,15.50
2017-09-23T19:21:30.764Z,15.50
2017-09-23T19:23:57.110Z,15.50
2017-09-23T19:26:23.497Z,15.50
2017-09-23T19:28:49.818Z,15.40
2017-09-23T19:31:16.165Z,15.40
2017-09-23T19:33:42.664Z,15.40
2017-09-23T19:36:09.728Z,15.30
2017-09-23T19:38:36.825Z,15.30
2017-09-23T19:41:03.231Z,15.30
2017-09-23T19:43:29.664Z,15.30
2017-09-23T19:45:56.205Z,15.30
2017-09-23T19:48:22.522Z,15.30
2017-09-23T19:50:48.893Z,15.40
2017-09-23T19:53:15.229Z,15.40
2017-09-23T19:55:41.542Z,15.40
2017-09-23T19:58:07.844Z,15.40
2017-09-23T20:00:34.124Z,15.50
2017-09-23T20:03:00.495Z,15.40
2017-09-23T20:05:26.916Z,15.40
2017-09-23T20:07:54.330Z,15.50
2017-09-23T20:10:20.668Z,15.50
2017-09-23T20:12:52.370Z,15.50
2017-09-23T20:15:18.980Z,15.40
2017-09-23T20:17:45.314Z,15.40
2017-09-23T20:20:12.409Z,15.40
2017-09-23T20:22:38.949Z,15.40
2017-09-23T20:25:05.294Z,15.40
2017-09-23T20:27:31.641Z,15.50
2017-09-23T20:29:57.982Z,15.40
2017-09-23T20:32:25.227Z,15.50
2017-09-23T20:34:51.573Z,15.50
2017-09-23T20:37:18.790Z,15.50
2017-09-23T20:39:45.146Z,15.50
2017-09-23T20:42:11.556Z,15.50
2017-09-23T20:44:37.862Z,15.50
2017-09-23T20:47:04.194Z,15.50
2017-09-23T20:49:30.588Z,15.50
2017-09-23T20:51:57.646Z,15.50
2017-09-23T20:54:24.704Z,15.50
2017-09-23T20:56:51.136Z,15.50
2017-09-23T20:59:17.471Z,15.50
2017-09-23T21:01:43.808Z,15.60
2017-09-23T21:04:10.132Z,15.50
2017-09-23T21:06:36.523Z,15.50
2017-09-23T21:09:03.905Z,15.50
2017-09-23T21:11:30.227Z,15.50
2017-09-23T21:13:57.342Z,15.50
2017-09-23T21:16:23.826Z,15.50
2017-09-23T21:18:50.144Z,15.50
2017-09-23T21:21:17.225Z,15.50
2017-09-23T21:23:43.520Z,15.50
2017-09-23T21:26:10.560Z,15.40
2017-09-23T21:28:37.807Z,15.40
2017-09-23T21:31:04.855Z,15.40
2017-09-23T21:33:31.952Z,15.40
2017-09-23T21:35:58.264Z,15.30
2017-09-23T21:38:24.593Z,15.30
2017-09-23T21:40:51.040Z,15.30
2017-09-23T21:43:17.492Z,15.30
2017-09-23T21:45:43.847Z,15.30
2017-09-23T21:48:10.180Z,15.40
2017-09-23T21:50:37.312Z,15.30
2017-09-23T21:53:05.140Z,15.30
2017-09-23T21:55:31.461Z,15.20
2017-09-23T21:57:57.820Z,15.30
2017-09-23T22:00:24.207Z,15.30
2017-09-23T22:02:54.157Z,15.20
2017-09-23T22:05:20.440Z,15.20
2017-09-23T22:07:47.557Z,15.20
2017-09-23T22:10:13.957Z,15.20
2017-09-23T22:12:40.276Z,15.30
2017-09-23T22:15:06.603Z,15.20
2017-09-23T22:17:39.919Z,15.20
2017-09-23T22:20:06.249Z,15.10
2017-09-23T22:22:32.828Z,15.20
2017-09-23T22:24:59.910Z,15.20
2017-09-23T22:27:26.237Z,15.10
2017-09-23T22:29:53.479Z,15.10
2017-09-23T22:32:20.525Z,15.10
2017-09-23T22:34:47.573Z,15.10
2017-09-23T22:37:14.692Z,15.10
2017-09-23T22:39:41.016Z,15.10
2017-09-23T22:42:07.352Z,15.10
2017-09-23T22:44:33.682Z,15.10
2017-09-23T22:47:01.540Z,15.00
2017-09-23T22:49:27.865Z,15.00
2017-09-23T22:51:54.201Z,15.10
2017-09-23T22:54:20.581Z,15.10
2017-09-23T22:56:47.646Z,15.00
2017-09-23T22:59:13.966Z,15.00
2017-09-23T23:01:40.283Z,15.00
2017-09-23T23:04:07.332Z,15.00
2017-09-23T23:06:34.375Z,15.00
2017-09-23T23:09:01.477Z,15.10
2017-09-23T23:11:27.858Z,15.00
2017-09-23T23:13:54.936Z,15.00
2017-09-23T23:16:21.280Z,15.00
2017-09-23T23:18:47.944Z,15.00
2017-09-23T23:21:14.258Z,15.00
2017-09-23T23:23:40.553Z,14.90
2017-09-23T23:26:06.928Z,14.90
2017-09-23T23:28:33.232Z,15.00
2017-09-23T23:30:59.601Z,15.00
2017-09-23T23:33:25.895Z,14.90
2017-09-23T23:35:52.254Z,14.90
2017-09-23T23:38:25.543Z,14.90
2017-09-23T23:40:51.919Z,14.90
2017-09-23T23:43:18.222Z,14.90
2017-09-23T23:45:44.534Z,14.80
2017-09-23T23:48:10.844Z,14.80
2017-09-23T23:50:37.217Z,14.80
2017-09-23T23:53:04.289Z,14.90
2017-09-23T23:55:30.590Z,14.90
2017-09-23T23:57:56.991Z,14.90
